Time;durP1;ratioP1;P1;durP2;ratioP2;P2;SDS_P1;SDS_P2;PMS_P1;PMS_P2;Temp;Humidity;BMP_temperature;BMP_pressure;BME280_temperature;BME280_humidity;BME280_pressure;Samples;Min_cycle;Max_cycle;Signal;HPM_P1;HPM_P2
2023/07/27 00:02:10;;;;;;;4.90;3.85;;;;;;;13.62;72.81;100778.56;5065827;28;20418;-77
2023/07/27 00:04:36;;;;;;;4.97;3.92;;;;;;;13.62;72.61;100780.44;5064110;28;20302;-77
2023/07/27 00:07:01;;;;;;;5.70;4.07;;;;;;;13.60;72.41;100772.56;5063938;28;20029;-77
2023/07/27 00:09:27;;;;;;;5.70;4.20;;;;;;;13.61;72.57;100776.91;5058091;28;20484;-76
2023/07/27 00:11:54;;;;;;;5.97;4.05;;;;;;;13.59;73.31;100778.19;5060458;28;20021;-77
2023/07/27 00:14:20;;;;;;;4.70;3.83;;;;;;;13.56;73.70;100774.03;5056837;28;20044;-76
2023/07/27 00:16:45;;;;;;;6.78;4.15;;;;;;;13.53;74.50;100762.81;5060898;28;20021;-77
2023/07/27 00:19:11;;;;;;;5.50;3.80;;;;;;;13.52;73.75;100769.28;5055874;28;20033;-77
2023/07/27 00:21:36;;;;;;;5.93;3.67;;;;;;;13.48;73.68;100761.59;5060511;28;20020;-77
2023/07/27 00:24:02;;;;;;;6.63;4.20;;;;;;;13.49;73.38;100752.44;5065678;28;20357;-77
2023/07/27 00:26:27;;;;;;;6.30;4.60;;;;;;;13.47;73.71;100754.53;5066453;28;20066;-77
2023/07/27 00:28:52;;;;;;;6.40;4.15;;;;;;;13.46;74.12;100752.88;5059081;28;20025;-76
2023/07/27 00:31:18;;;;;;;6.88;4.45;;;;;;;13.47;74.32;100749.13;5068813;28;20033;-76
2023/07/27 00:33:43;;;;;;;5.72;4.40;;;;;;;13.47;74.36;100749.13;5064196;28;20033;-76
2023/07/27 00:36:09;;;;;;;6.68;4.35;;;;;;;13.54;74.19;100753.66;5063952;28;20033;-76
2023/07/27 00:38:34;;;;;;;6.38;4.63;;;;;;;13.51;74.60;100746.81;5058257;28;20021;-76
2023/07/27 00:40:59;;;;;;;7.95;4.57;;;;;;;13.49;75.07;100747.03;5052521;28;20056;-76
2023/07/27 00:43:25;;;;;;;7.53;4.43;;;;;;;13.52;75.34;100745.75;5061400;28;20036;-76
2023/07/27 00:45:50;;;;;;;6.68;4.47;;;;;;;13.63;74.72;100744.22;5067735;28;20028;-76
2023/07/27 00:48:16;;;;;;;7.80;4.85;;;;;;;13.95;73.20;100736.03;5054418;28;20025;-76
2023/07/27 00:50:41;;;;;;;6.20;4.10;;;;;;;14.05;73.21;100735.53;5062581;28;20519;-76
2023/07/27 00:53:08;;;;;;;7.20;4.50;;;;;;;14.28;72.05;100737.63;5062351;28;20427;-76
2023/07/27 00:55:33;;;;;;;7.80;4.35;;;;;;;14.36;71.99;100733.78;5066979;28;20033;-76
2023/07/27 00:57:59;;;;;;;5.30;4.60;;;;;;;14.50;71.79;100734.44;5055977;28;20400;-75
2023/07/27 01:00:25;;;;;;;6.40;4.53;;;;;;;14.56;71.69;100720.00;5020446;28;20433;-76
2023/07/27 01:02:50;;;;;;;6.82;4.70;;;;;;;14.65;71.45;100724.03;5044069;28;20392;-76
2023/07/27 01:05:16;;;;;;;7.18;4.82;;;;;;;14.75;71.50;100722.72;5059772;28;20039;-76
2023/07/27 01:07:41;;;;;;;6.85;4.93;;;;;;;14.86;71.52;100727.38;5066102;28;20024;-76
2023/07/27 01:10:07;;;;;;;8.00;5.38;;;;;;;14.85;72.04;100728.41;5064614;28;20053;-77
2023/07/27 01:12:37;;;;;;;7.28;5.22;;;;;;;14.82;72.49;100731.59;5050515;28;20029;-76
2023/07/27 01:15:14;;;;;;;6.43;5.03;;;;;;;14.86;72.96;100724.66;5041030;28;20044;-76
2023/07/27 01:17:48;;;;;;;7.25;4.93;;;;;;;14.90;72.65;100727.75;5035818;28;20052;-75
2023/07/27 01:20:19;;;;;;;8.55;5.47;;;;;;;14.90;73.41;100727.75;5034655;28;20052;-75
2023/07/27 01:23:24;;;;;;;8.25;5.50;;;;;;;14.90;73.30;100728.56;5058837;28;20020;-75
2023/07/27 01:26:27;;;;;;;6.05;4.97;;;;;;;14.91;73.70;100724.00;5053275;28;20060;-75
2023/07/27 01:28:58;;;;;;;8.45;5.30;;;;;;;14.86;74.11;100721.94;5054769;28;20574;-76
2023/07/27 01:31:30;;;;;;;7.05;5.05;;;;;;;14.91;74.91;100708.53;5062151;28;20037;-76
2023/07/27 01:33:59;;;;;;;6.75;5.32;;;;;;;14.96;75.20;100713.25;5035719;28;20094;-76
2023/07/27 01:36:26;;;;;;;6.50;5.72;;;;;;;14.99;75.27;100719.06;5050855;28;20391;-76
2023/07/27 01:38:51;;;;;;;9.85;6.43;;;;;;;14.84;76.65;100714.06;5027059;28;20048;-76
2023/07/27 01:41:17;;;;;;;8.02;5.72;;;;;;;14.85;76.64;100712.16;5029440;28;20093;-76
2023/07/27 01:43:42;;;;;;;7.32;5.32;;;;;;;14.90;76.86;100700.66;5062577;28;20029;-76
2023/07/27 01:46:11;;;;;;;8.05;6.00;;;;;;;14.83;77.66;100711.56;5049448;28;20052;-76
2023/07/27 01:48:42;;;;;;;7.07;5.20;;;;;;;14.77;78.54;100705.16;5033543;28;20020;-76
2023/07/27 01:51:08;;;;;;;6.72;5.65;;;;;;;14.82;78.28;100705.31;5041646;28;20017;-76
2023/07/27 01:53:36;;;;;;;6.82;6.05;;;;;;;14.75;78.84;100703.75;5049574;28;20572;-76
2023/07/27 01:56:05;;;;;;;10.02;5.97;;;;;;;14.72;79.16;100698.78;5023208;28;20043;-76
2023/07/27 01:58:30;;;;;;;8.30;5.82;;;;;;;14.71;79.57;100703.41;5064141;28;20021;-76
2023/07/27 02:00:56;;;;;;;8.40;5.70;;;;;;;14.67;80.45;100692.13;5025242;28;20486;-76
2023/07/27 02:03:21;;;;;;;6.82;6.03;;;;;;;14.69;80.53;100694.66;5040491;28;20086;-77
2023/07/27 02:05:47;;;;;;;9.65;6.60;;;;;;;14.56;81.70;100698.34;5051644;28;20044;-76
2023/07/27 02:08:12;;;;;;;9.10;6.30;;;;;;;14.37;83.26;100690.22;5056300;28;20025;-76
2023/07/27 02:10:37;;;;;;;11.55;7.00;;;;;;;14.29;84.00;100685.13;5069669;28;20480;-76
2023/07/27 02:13:31;;;;;;;10.00;6.70;;;;;;;14.15;85.11;100675.47;5066530;28;20028;-76
2023/07/27 02:16:07;;;;;;;8.10;6.35;;;;;;;14.06;86.54;100678.50;5068924;28;20508;-76
2023/07/27 02:18:32;;;;;;;;;;;;;;;14.05;86.85;100671.41;5073428;28;20043;-80
2023/07/27 02:20:58;;;;;;;8.07;6.13;;;;;;;14.19;86.25;100676.69;5038277;28;19921;-79
2023/07/27 02:23:23;;;;;;;8.60;6.35;;;;;;;14.23;86.38;100675.19;5046558;28;20182;-79
2023/07/27 02:25:49;;;;;;;7.40;6.40;;;;;;;14.30;86.66;100667.78;5035468;28;20025;-79
2023/07/27 02:28:14;;;;;;;9.23;6.53;;;;;;;14.25;86.57;100664.97;5035327;28;20029;-80
2023/07/27 02:30:39;;;;;;;8.38;6.38;;;;;;;14.15;87.20;100662.78;5044250;28;20035;-80
2023/07/27 02:33:05;;;;;;;9.30;6.57;;;;;;;14.22;87.16;100658.09;5066563;28;20438;-79
2023/07/27 02:35:31;;;;;;;8.40;7.03;;;;;;;14.15;88.32;100657.38;5051239;28;20431;-81
2023/07/27 02:37:56;;;;;;;9.27;7.30;;;;;;;14.10;88.59;100663.47;5071136;28;20025;-80
2023/07/27 02:40:21;;;;;;;8.10;6.82;;;;;;;14.07;89.01;100658.50;5053004;28;20079;-80
2023/07/27 02:42:47;;;;;;;7.72;6.65;;;;;;;14.09;89.18;100659.09;5062014;28;20025;-80
2023/07/27 02:45:12;;;;;;;8.48;6.97;;;;;;;14.16;88.91;100650.91;5072450;28;20127;-80
2023/07/27 02:47:38;;;;;;;8.95;7.30;;;;;;;14.16;89.01;100660.88;5063921;28;20036;-80
2023/07/27 02:50:03;;;;;;;9.68;6.55;;;;;;;14.12;89.22;100659.69;5061264;28;20093;-80
2023/07/27 02:52:28;;;;;;;8.77;7.00;;;;;;;14.07;90.10;100663.91;5066931;28;20616;-80
2023/07/27 02:54:55;;;;;;;9.00;6.82;;;;;;;14.09;90.31;100655.53;5068988;28;20094;-80
2023/07/27 02:57:20;;;;;;;8.40;6.85;;;;;;;14.03;91.16;100651.88;5053752;28;20889;-80
2023/07/27 02:59:46;;;;;;;8.48;7.15;;;;;;;13.98;91.77;100642.78;5072202;28;20028;-80
2023/07/27 03:02:11;;;;;;;8.85;7.82;;;;;;;13.92;92.92;100648.03;5064067;28;20022;-80
2023/07/27 03:04:37;;;;;;;9.63;7.80;;;;;;;13.95;93.00;100646.72;5054532;28;20036;-80
2023/07/27 03:07:02;;;;;;;8.77;7.85;;;;;;;13.92;93.46;100647.22;5072376;28;20029;-80
2023/07/27 03:09:27;;;;;;;9.10;7.43;;;;;;;13.86;93.54;100631.84;5071628;28;20054;-80
2023/07/27 03:11:53;;;;;;;8.93;7.50;;;;;;;13.84;94.22;100633.97;5063817;28;20028;-80
2023/07/27 03:14:18;;;;;;;8.88;8.00;;;;;;;13.78;94.07;100624.88;5070741;28;20035;-80
2023/07/27 03:16:44;;;;;;;8.70;7.38;;;;;;;13.73;95.14;100622.84;5064711;28;20024;-80
2023/07/27 03:19:09;;;;;;;9.20;7.72;;;;;;;13.70;95.48;100622.44;5065883;28;20032;-80
2023/07/27 03:21:35;;;;;;;10.25;7.60;;;;;;;13.66;95.92;100616.66;5066265;28;20028;-80
2023/07/27 03:24:00;;;;;;;11.35;8.27;;;;;;;13.57;97.08;100604.47;5068163;28;20028;-80
2023/07/27 03:26:25;;;;;;;11.93;8.70;;;;;;;13.51;97.77;100602.66;5070677;28;20388;-80
2023/07/27 03:28:53;;;;;;;9.73;8.35;;;;;;;13.62;98.16;100615.44;5070991;28;20028;-80
2023/07/27 03:31:23;;;;;;;11.30;8.32;;;;;;;13.66;98.30;100605.84;5061140;28;20115;-80
2023/07/27 03:33:48;;;;;;;9.88;8.25;;;;;;;13.60;98.29;100598.59;5052998;28;20479;-80
2023/07/27 03:36:18;;;;;;;10.35;7.85;;;;;;;13.64;98.62;100589.00;5059951;28;20032;-80
2023/07/27 03:38:43;;;;;;;10.20;7.90;;;;;;;13.67;98.05;100585.84;5071458;28;20032;-81
2023/07/27 03:41:09;;;;;;;10.65;8.48;;;;;;;13.56;98.97;100590.13;5070256;28;20032;-80
2023/07/27 03:43:34;;;;;;;10.35;8.20;;;;;;;13.58;99.25;100579.91;5063097;28;20032;-81
2023/07/27 03:46:00;;;;;;;10.52;8.52;;;;;;;13.60;99.92;100585.06;5058551;28;20068;-81
2023/07/27 03:48:28;;;;;;;11.27;8.75;;;;;;;13.56;100.00;100578.47;5054351;28;20025;-80
2023/07/27 03:50:53;;;;;;;10.90;8.55;;;;;;;13.48;100.00;100572.31;5061731;28;20167;-81
2023/07/27 03:53:19;;;;;;;11.70;8.40;;;;;;;13.41;100.00;100574.25;5066800;28;20032;-80
2023/07/27 03:55:45;;;;;;;10.50;8.35;;;;;;;13.41;100.00;100570.72;5070806;28;20021;-80
2023/07/27 03:58:10;;;;;;;12.88;8.75;;;;;;;13.35;100.00;100567.00;5070856;28;20039;-80
2023/07/27 04:00:38;;;;;;;11.73;8.75;;;;;;;13.29;100.00;100567.88;5070895;28;20034;-80
2023/07/27 04:03:04;;;;;;;10.63;8.70;;;;;;;13.37;100.00;100564.06;5069125;28;20039;-80
2023/07/27 04:05:31;;;;;;;11.05;8.68;;;;;;;13.41;100.00;100555.34;5066779;28;20013;-80
2023/07/27 04:07:57;;;;;;;11.02;8.70;;;;;;;13.44;100.00;100552.16;5070895;28;20101;-80
2023/07/27 04:10:22;;;;;;;11.05;8.85;;;;;;;13.30;100.00;100547.91;5070797;28;20036;-80
2023/07/27 04:12:48;;;;;;;11.48;9.23;;;;;;;13.21;100.00;100541.16;5067759;28;20040;-80
2023/07/27 04:15:13;;;;;;;11.40;8.60;;;;;;;13.26;100.00;100544.84;5071726;28;20028;-80
2023/07/27 04:17:38;;;;;;;10.38;8.25;;;;;;;13.32;100.00;100535.84;5071207;28;20036;-80
2023/07/27 04:20:04;;;;;;;10.27;8.00;;;;;;;13.30;100.00;100532.53;5068043;28;20041;-80
2023/07/27 04:22:30;;;;;;;12.70;8.27;;;;;;;13.30;100.00;100526.28;5027785;28;20037;-80
2023/07/27 04:24:55;;;;;;;11.40;8.20;;;;;;;13.30;100.00;100516.31;5071516;28;20048;-80
2023/07/27 04:27:20;;;;;;;11.15;7.32;;;;;;;13.30;100.00;100508.19;5070982;28;20465;-80
2023/07/27 04:29:46;;;;;;;13.40;8.45;;;;;;;13.23;100.00;100507.44;5065705;28;20030;-79
2023/07/27 04:32:11;;;;;;;10.13;7.30;;;;;;;13.19;100.00;100498.94;5066651;28;20021;-80
2023/07/27 04:34:39;;;;;;;12.00;8.07;;;;;;;13.22;100.00;100500.38;5069916;28;20456;-79
2023/07/27 04:37:05;;;;;;;9.77;7.57;;;;;;;13.22;100.00;100503.06;5068564;28;20024;-79
2023/07/27 04:39:30;;;;;;;10.77;7.65;;;;;;;13.30;100.00;100501.94;5070885;28;20028;-80
2023/07/27 04:41:56;;;;;;;12.60;7.80;;;;;;;13.26;100.00;100498.88;5057244;28;20028;-79
2023/07/27 04:44:21;;;;;;;10.13;7.43;;;;;;;13.31;100.00;100487.38;5069638;28;20055;-79
2023/07/27 04:46:47;;;;;;;8.82;7.07;;;;;;;13.29;100.00;100481.38;5094299;28;20058;-79
2023/07/27 04:49:12;;;;;;;9.40;7.38;;;;;;;13.28;100.00;100495.94;5077859;28;20491;-80
2023/07/27 04:51:38;;;;;;;9.25;7.07;;;;;;;13.31;100.00;100481.97;5064784;28;20040;-80
2023/07/27 04:54:03;;;;;;;8.35;6.60;;;;;;;13.32;100.00;100484.47;5060535;28;20021;-80
2023/07/27 04:56:28;;;;;;;7.90;6.60;;;;;;;13.30;100.00;100480.31;5072202;28;20040;-79
2023/07/27 04:58:54;;;;;;;9.95;7.25;;;;;;;13.26;100.00;100471.00;5073869;28;20040;-80
2023/07/27 05:01:20;;;;;;;9.70;7.43;;;;;;;13.24;100.00;100465.03;5072637;28;20024;-80
2023/07/27 05:03:45;;;;;;;10.55;7.70;;;;;;;13.18;100.00;100458.59;5071167;28;20035;-80
2023/07/27 05:06:10;;;;;;;10.40;7.68;;;;;;;13.22;100.00;100445.50;5074361;28;20410;-80
2023/07/27 05:08:36;;;;;;;11.30;7.93;;;;;;;13.19;100.00;100431.38;5071579;28;20036;-79
2023/07/27 05:11:02;;;;;;;11.60;7.90;;;;;;;13.19;100.00;100425.97;5072612;28;20036;-80
2023/07/27 05:13:28;;;;;;;9.77;7.85;;;;;;;13.17;100.00;100429.94;5061715;28;20060;-80
2023/07/27 05:15:53;;;;;;;9.35;7.55;;;;;;;13.16;100.00;100423.72;5073182;28;20035;-80
2023/07/27 05:18:18;;;;;;;9.90;7.68;;;;;;;13.16;100.00;100426.41;5070071;28;20024;-80
2023/07/27 05:20:44;;;;;;;9.02;7.45;;;;;;;13.23;100.00;100422.81;5073732;28;20028;-80
2023/07/27 05:23:10;;;;;;;9.00;7.00;;;;;;;13.21;100.00;100416.81;5064328;28;20028;-80
2023/07/27 05:25:38;;;;;;;9.50;7.07;;;;;;;13.27;100.00;100413.19;5069064;28;20029;-81
2023/07/27 05:28:03;;;;;;;10.35;7.38;;;;;;;13.25;100.00;100409.88;5073822;28;20040;-79
2023/07/27 05:30:29;;;;;;;10.40;7.10;;;;;;;13.31;100.00;100398.19;5074173;28;20024;-79
2023/07/27 05:32:54;;;;;;;8.50;7.03;;;;;;;13.28;100.00;100394.06;5064989;28;20024;-79
2023/07/27 05:35:20;;;;;;;7.85;6.93;;;;;;;13.31;100.00;100384.66;5066808;28;20036;-79
2023/07/27 05:37:48;;;;;;;9.23;6.50;;;;;;;13.26;100.00;100389.91;5063412;28;20021;-79
2023/07/27 05:40:14;;;;;;;8.48;7.53;;;;;;;13.25;100.00;100404.47;5066964;28;20020;-79
2023/07/27 05:42:40;;;;;;;7.82;6.95;;;;;;;13.30;100.00;100385.72;5064159;28;20095;-80
2023/07/27 05:45:06;;;;;;;9.27;6.90;;;;;;;13.24;100.00;100389.34;5051028;28;20029;-80
2023/07/27 05:47:31;;;;;;;8.57;6.65;;;;;;;13.27;100.00;100381.59;5058623;28;20020;-80
2023/07/27 05:49:58;;;;;;;7.90;7.10;;;;;;;13.29;100.00;100386.75;5071544;28;20027;-79
2023/07/27 05:52:23;;;;;;;9.48;6.72;;;;;;;13.37;100.00;100381.06;5065621;28;20464;-80
2023/07/27 05:54:49;;;;;;;7.45;6.40;;;;;;;13.33;100.00;100371.75;5067388;28;20043;-81
2023/07/27 05:57:14;;;;;;;8.45;5.95;;;;;;;13.38;100.00;100366.50;5071065;28;20021;-86
2023/07/27 05:59:39;;;;;;;7.05;6.00;;;;;;;13.32;100.00;100375.50;5071425;28;20036;-81
2023/07/27 06:02:05;;;;;;;6.57;5.90;;;;;;;13.39;100.00;100357.31;5070232;28;20025;-81
2023/07/27 06:04:31;;;;;;;8.18;6.38;;;;;;;13.32;100.00;100362.81;5058712;28;20096;-83
2023/07/27 06:06:57;;;;;;;7.70;6.10;;;;;;;13.41;100.00;100376.03;5071440;28;20021;-84
2023/07/27 06:09:23;;;;;;;7.15;6.43;;;;;;;13.38;100.00;100361.09;5072382;28;20040;-83
2023/07/27 06:11:48;;;;;;;6.60;6.00;;;;;;;13.45;100.00;100369.13;5072598;28;20025;-84
2023/07/27 06:14:14;;;;;;;7.68;6.25;;;;;;;13.44;100.00;100362.88;5071072;28;20431;-79
2023/07/27 06:16:39;;;;;;;6.30;5.50;;;;;;;13.49;100.00;100363.03;5050979;28;20401;-79
2023/07/27 06:19:04;;;;;;;6.45;5.55;;;;;;;13.54;100.00;100354.22;5066637;28;20032;-79
2023/07/27 06:21:30;;;;;;;6.32;5.40;;;;;;;13.54;100.00;100356.13;5068230;28;20051;-79
2023/07/27 06:23:55;;;;;;;6.38;5.72;;;;;;;13.60;100.00;100347.91;5072045;28;20035;-79
2023/07/27 06:26:20;;;;;;;8.57;5.90;;;;;;;13.60;100.00;100347.06;5070267;28;20036;-78
2023/07/27 06:28:46;;;;;;;7.47;5.80;;;;;;;13.65;100.00;100352.63;5066692;28;20036;-78
2023/07/27 06:31:11;;;;;;;6.97;5.80;;;;;;;13.66;100.00;100350.75;5069617;28;20427;-78
2023/07/27 06:33:37;;;;;;;8.55;5.75;;;;;;;13.63;100.00;100349.31;5054258;28;20433;-77
2023/07/27 06:36:02;;;;;;;6.88;6.18;;;;;;;13.68;100.00;100340.53;5059433;28;20029;-77
2023/07/27 06:38:28;;;;;;;6.55;5.95;;;;;;;13.75;100.00;100344.78;5071503;28;20107;-77
2023/07/27 06:40:53;;;;;;;7.45;6.30;;;;;;;13.66;100.00;100335.34;5061126;28;20033;-77
2023/07/27 06:43:19;;;;;;;6.50;5.90;;;;;;;13.66;100.00;100342.66;5058617;28;20021;-78
2023/07/27 06:45:44;;;;;;;7.35;6.00;;;;;;;13.70;100.00;100333.84;5071386;28;20025;-78
2023/07/27 06:48:09;;;;;;;7.28;6.32;;;;;;;13.71;100.00;100335.50;5049402;28;20033;-78
2023/07/27 06:50:35;;;;;;;6.65;5.93;;;;;;;13.78;100.00;100332.69;5035828;28;20300;-78
2023/07/27 06:53:00;;;;;;;8.45;6.30;;;;;;;13.83;100.00;100331.97;5051095;28;20025;-79
2023/07/27 06:55:26;;;;;;;7.75;6.20;;;;;;;13.83;100.00;100332.81;5069372;28;20025;-78
2023/07/27 06:57:54;;;;;;;6.63;6.03;;;;;;;13.86;100.00;100326.91;5057584;28;20486;-79
2023/07/27 07:00:20;;;;;;;7.25;5.88;;;;;;;13.95;100.00;100333.66;5046959;28;20060;-79
2023/07/27 07:02:46;;;;;;;6.65;5.80;;;;;;;13.99;100.00;100327.78;5055613;28;20453;-78
2023/07/27 07:05:11;;;;;;;6.60;6.00;;;;;;;14.03;100.00;100326.28;5069374;28;20632;-76
2023/07/27 07:07:38;;;;;;;6.68;5.97;;;;;;;14.05;100.00;100319.56;5062424;28;20024;-77
2023/07/27 07:10:04;;;;;;;5.85;5.35;;;;;;;14.10;100.00;100318.84;5051779;28;20545;-77
2023/07/27 07:12:30;;;;;;;6.32;5.72;;;;;;;14.06;100.00;100310.38;5056642;28;20027;-78
2023/07/27 07:14:55;;;;;;;5.82;5.22;;;;;;;14.16;100.00;100312.50;5052060;28;20036;-83
2023/07/27 07:17:21;;;;;;;5.93;5.30;;;;;;;14.18;100.00;100312.25;5067425;28;20661;-84
2023/07/27 07:24:39;;;;;;;4.60;4.20;;;;;;;14.31;100.00;100309.31;5065384;28;20052;-78
2023/07/27 07:27:04;;;;;;;4.30;3.90;;;;;;;14.37;100.00;100302.97;5070115;28;20361;-81
2023/07/27 07:29:30;;;;;;;3.80;3.50;;;;;;;14.42;100.00;100304.97;5052470;28;20032;-79
2023/07/27 07:31:58;;;;;;;4.78;3.70;;;;;;;14.50;100.00;100301.06;5068920;28;20451;-78
2023/07/27 07:34:23;;;;;;;3.60;3.30;;;;;;;14.47;100.00;100294.25;5068871;28;20028;-77
2023/07/27 07:36:49;;;;;;;3.83;3.45;;;;;;;14.45;100.00;100292.88;5069262;28;20016;-78
2023/07/27 07:39:14;;;;;;;3.17;2.97;;;;;;;14.51;100.00;100291.91;5067261;28;20582;-78
2023/07/27 07:41:49;;;;;;;3.05;2.78;;;;;;;14.58;100.00;100287.19;5069977;28;20020;-78
2023/07/27 07:44:14;;;;;;;3.20;2.88;;;;;;;14.65;100.00;100285.16;5070590;28;20032;-78
2023/07/27 07:46:40;;;;;;;2.90;2.70;;;;;;;14.64;100.00;100283.53;5069196;28;20490;-78
2023/07/27 07:49:06;;;;;;;3.03;2.80;;;;;;;14.75;100.00;100286.47;5070375;28;20515;-78
2023/07/27 07:51:34;;;;;;;3.25;2.47;;;;;;;14.77;100.00;100277.03;5070020;28;20036;-78
2023/07/27 07:54:00;;;;;;;2.63;2.42;;;;;;;14.89;100.00;100273.50;5061413;28;20056;-78
2023/07/27 07:56:25;;;;;;;2.50;2.30;;;;;;;14.91;100.00;100269.47;5069547;28;20106;-78
2023/07/27 07:58:51;;;;;;;2.40;2.20;;;;;;;14.94;100.00;100269.00;5070124;28;20051;-78
2023/07/27 08:01:19;;;;;;;2.40;2.20;;;;;;;14.98;100.00;100261.19;5070004;28;20480;-78
2023/07/27 08:03:44;;;;;;;2.15;2.05;;;;;;;15.00;100.00;100264.50;5069860;28;20032;-78
2023/07/27 08:06:12;;;;;;;1.90;1.73;;;;;;;15.07;100.00;100261.66;5071043;28;20325;-78
2023/07/27 08:08:38;;;;;;;2.50;2.13;;;;;;;15.12;100.00;100250.91;5072995;28;20024;-76
2023/07/27 08:11:03;;;;;;;1.90;1.80;;;;;;;15.15;100.00;100261.28;5077325;28;20032;-76
2023/07/27 08:13:32;;;;;;;1.70;1.60;;;;;;;15.14;100.00;100259.63;5080114;28;20028;-76
2023/07/27 08:15:57;;;;;;;1.80;1.70;;;;;;;15.16;100.00;100254.78;5053370;28;20035;-77
2023/07/27 08:18:23;;;;;;;1.83;1.70;;;;;;;15.18;100.00;100249.91;5070424;28;20384;-78
2023/07/27 08:21:02;;;;;;;2.03;1.92;;;;;;;15.28;100.00;100242.00;5067962;28;20029;-78
2023/07/27 08:23:31;;;;;;;2.10;1.75;;;;;;;15.33;100.00;100245.88;5067292;28;20455;-78
2023/07/27 08:25:57;;;;;;;1.80;1.70;;;;;;;15.43;100.00;100244.16;5067798;28;20036;-78
2023/07/27 08:28:22;;;;;;;1.80;1.70;;;;;;;15.51;100.00;100245.66;5070270;28;20096;-78
2023/07/27 08:30:48;;;;;;;1.90;1.80;;;;;;;15.58;100.00;100237.34;5069690;28;20426;-78
2023/07/27 08:33:13;;;;;;;1.90;1.80;;;;;;;15.65;100.00;100239.91;5059302;28;20559;-78
2023/07/27 08:35:39;;;;;;;1.77;1.67;;;;;;;15.61;100.00;100240.38;5069683;28;20353;-78
2023/07/27 08:38:04;;;;;;;1.70;1.60;;;;;;;15.71;100.00;100230.75;5069768;28;20148;-78
2023/07/27 08:40:30;;;;;;;2.00;1.90;;;;;;;15.76;100.00;100230.84;5068274;28;20021;-78
2023/07/27 08:42:55;;;;;;;1.80;1.70;;;;;;;15.84;100.00;100226.88;5066351;28;20055;-78
2023/07/27 08:45:21;;;;;;;1.90;1.80;;;;;;;15.95;100.00;100227.91;5066749;28;20059;-77
2023/07/27 08:47:49;;;;;;;1.83;1.73;;;;;;;15.99;100.00;100229.88;5067553;28;20017;-77
2023/07/27 08:50:15;;;;;;;1.80;1.70;;;;;;;16.04;100.00;100227.25;5051060;28;20570;-77
2023/07/27 08:52:40;;;;;;;1.80;1.70;;;;;;;16.05;100.00;100223.47;5065574;28;20052;-78
2023/07/27 08:55:07;;;;;;;1.90;1.80;;;;;;;16.06;100.00;100224.28;5067986;28;20119;-78
2023/07/27 08:57:32;;;;;;;1.80;1.70;;;;;;;16.03;100.00;100220.16;5067533;28;20021;-78
2023/07/27 08:59:57;;;;;;;1.73;1.63;;;;;;;16.08;100.00;100215.88;5069084;28;20041;-77
2023/07/27 09:02:25;;;;;;;1.80;1.70;;;;;;;16.06;100.00;100224.28;5066764;28;20016;-77
2023/07/27 09:04:50;;;;;;;1.80;1.70;;;;;;;16.16;100.00;100221.72;5068393;28;20094;-77
2023/07/27 09:07:16;;;;;;;2.00;1.60;;;;;;;16.26;100.00;100215.59;5069206;28;20048;-77
2023/07/27 09:09:41;;;;;;;1.70;1.60;;;;;;;16.15;100.00;100217.34;5067650;28;20425;-77
2023/07/27 09:12:07;;;;;;;1.80;1.70;;;;;;;16.29;100.00;100219.69;5032722;28;20024;-77
2023/07/27 09:14:36;;;;;;;1.60;1.50;;;;;;;16.37;100.00;100211.13;5068892;28;20544;-77
2023/07/27 09:17:02;;;;;;;1.55;1.30;;;;;;;16.50;100.00;100208.03;5067943;28;20111;-77
2023/07/27 09:19:27;;;;;;;1.90;1.40;;;;;;;16.49;100.00;100211.81;5067507;28;20063;-77
2023/07/27 09:21:56;;;;;;;1.55;1.45;;;;;;;16.52;100.00;100216.75;5051281;28;20419;-77
2023/07/27 09:24:21;;;;;;;1.67;1.58;;;;;;;16.51;100.00;100217.84;5045329;28;20045;-77
2023/07/27 09:26:53;;;;;;;1.58;1.48;;;;;;;16.54;100.00;100219.22;5047510;28;20028;-78
2023/07/27 09:29:20;;;;;;;1.70;1.60;;;;;;;16.60;100.00;100217.38;5048460;28;20454;-77
2023/07/27 09:31:49;;;;;;;1.75;1.65;;;;;;;16.52;100.00;100211.31;5048019;28;20484;-77
2023/07/27 09:34:15;;;;;;;1.60;1.50;;;;;;;16.67;100.00;100218.03;5045826;28;20078;-77
2023/07/27 09:36:41;;;;;;;1.60;1.50;;;;;;;16.71;100.00;100213.72;5048328;28;20619;-78
2023/07/27 09:39:06;;;;;;;1.70;1.60;;;;;;;16.79;100.00;100215.16;5052025;28;20037;-80
2023/07/27 09:41:32;;;;;;;1.70;1.60;;;;;;;16.76;100.00;100211.06;5051353;28;20020;-80
2023/07/27 09:43:58;;;;;;;1.90;1.80;;;;;;;16.77;99.29;100207.25;5051176;28;20033;-80
2023/07/27 09:46:23;;;;;;;1.90;1.80;;;;;;;16.71;99.17;100205.56;5050598;28;20372;-79
2023/07/27 09:48:49;;;;;;;3.10;1.85;;;;;;;16.64;100.00;100213.09;5051910;28;20029;-80
2023/07/27 09:51:15;;;;;;;2.05;1.95;;;;;;;16.61;100.00;100214.41;5050490;28;20039;-80
2023/07/27 09:53:42;;;;;;;2.20;2.10;;;;;;;16.66;100.00;100210.94;5049245;28;20021;-79
2023/07/27 09:56:08;;;;;;;2.60;2.40;;;;;;;16.54;100.00;100207.53;5051034;28;20590;-81
2023/07/27 09:58:33;;;;;;;2.90;2.60;;;;;;;16.41;100.00;100215.00;5051535;28;20040;-80
2023/07/27 10:00:59;;;;;;;3.45;2.80;;;;;;;16.44;100.00;100210.94;5051172;28;20025;-79
2023/07/27 10:03:24;;;;;;;2.63;2.42;;;;;;;16.65;100.00;100212.00;5050679;28;20087;-80
2023/07/27 10:05:49;;;;;;;2.53;2.33;;;;;;;16.75;100.00;100214.88;5049928;28;20068;-78
2023/07/27 10:08:16;;;;;;;2.30;2.20;;;;;;;16.89;100.00;100215.28;5049184;28;20028;-78
2023/07/27 10:10:42;;;;;;;2.53;2.40;;;;;;;16.97;100.00;100214.03;5031959;28;20380;-78
2023/07/27 10:13:22;;;;;;;3.03;2.60;;;;;;;16.88;100.00;100207.38;5045899;28;20029;-78
2023/07/27 10:15:48;;;;;;;2.22;2.13;;;;;;;16.99;100.00;100211.88;5050386;28;20104;-78
2023/07/27 10:18:17;;;;;;;2.67;2.58;;;;;;;17.13;100.00;100202.22;5048266;28;20021;-77
2023/07/27 10:20:42;;;;;;;2.30;2.20;;;;;;;17.18;99.96;100206.09;5049092;28;20108;-78
2023/07/27 10:23:11;;;;;;;2.20;2.10;;;;;;;17.04;100.00;100201.06;5058219;28;20051;-77
2023/07/27 10:25:54;;;;;;;2.30;2.20;;;;;;;17.22;100.00;100204.50;5069195;28;20025;-78
2023/07/27 10:28:40;;;;;;;2.58;2.38;;;;;;;17.29;98.94;100207.84;5066501;28;20102;-78
2023/07/27 10:31:24;;;;;;;2.25;2.10;;;;;;;17.31;98.90;100202.94;5066529;28;20028;-78
2023/07/27 10:33:56;;;;;;;2.10;2.00;;;;;;;17.36;99.02;100205.72;5070607;28;20547;-78
2023/07/27 10:36:23;;;;;;;2.15;2.05;;;;;;;17.24;99.46;100202.34;5064289;28;20028;-78
2023/07/27 10:38:55;;;;;;;2.00;1.90;;;;;;;17.28;98.64;100200.75;5070675;28;20024;-80
2023/07/27 10:41:22;;;;;;;2.35;2.10;;;;;;;17.20;99.81;100201.22;5069735;28;20353;-78
2023/07/27 10:44:09;;;;;;;2.60;2.40;;;;;;;17.14;100.00;100200.34;5072256;28;20029;-78
2023/07/27 10:46:38;;;;;;;2.40;2.22;;;;;;;17.01;100.00;100211.63;5056059;28;20043;-78
2023/07/27 10:49:11;;;;;;;2.55;2.35;;;;;;;16.99;100.00;100206.44;5069422;28;20059;-78
2023/07/27 10:51:36;;;;;;;2.92;2.50;;;;;;;17.24;100.00;100210.50;5069464;28;20117;-79
2023/07/27 10:54:01;;;;;;;2.80;2.60;;;;;;;17.26;100.00;100198.28;5034966;28;21562;-78
2023/07/27 10:56:27;;;;;;;2.75;2.55;;;;;;;17.33;100.00;100199.97;5069121;28;20435;-78
2023/07/27 10:58:55;;;;;;;2.60;2.40;;;;;;;17.34;100.00;100204.34;5075378;22;20036;-78
2023/07/27 11:01:20;;;;;;;2.70;2.50;;;;;;;17.27;99.13;100193.69;5030874;28;20040;-78
2023/07/27 11:03:46;;;;;;;2.60;2.40;;;;;;;17.09;100.00;100181.25;5046266;28;20033;-78
2023/07/27 11:06:11;;;;;;;2.40;2.30;;;;;;;17.10;100.00;100185.63;5052383;28;20154;-78
2023/07/27 11:08:37;;;;;;;2.08;1.98;;;;;;;17.24;100.00;100183.31;5035609;22;20512;-78
2023/07/27 11:11:19;;;;;;;2.30;2.20;;;;;;;17.55;99.52;100176.22;5028443;28;20025;-79
2023/07/27 11:13:44;;;;;;;2.90;2.70;;;;;;;17.57;97.92;100192.28;5017588;28;20037;-80
2023/07/27 11:16:15;;;;;;;2.38;2.25;;;;;;;17.69;98.29;100179.31;5020498;28;20073;-80
2023/07/27 11:18:41;;;;;;;2.90;2.50;;;;;;;17.80;97.97;100174.75;4999617;28;20045;-80
2023/07/27 11:21:11;;;;;;;2.83;2.63;;;;;;;17.93;95.97;100181.66;5011171;28;20498;-80
2023/07/27 11:23:45;;;;;;;2.58;2.28;;;;;;;18.25;95.89;100177.22;5027706;28;20141;-80